sensor_id;sensor_type;location;lat;lon;timestamp;P1;durP1;ratioP1;P2;durP2;ratioP2
46054;SDS011;31788;6.954;-71.872;2022-07-21T00:01:05;2.40;;;1.90;;
46054;SDS011;31788;6.954;-71.872;2022-07-21T00:03:32;3.50;;;1.30;;
46054;SDS011;31788;6.954;-71.872;2022-07-21T00:05:59;2.20;;;1.10;;
46054;SDS011;31788;6.954;-71.872;2022-07-21T00:08:26;3.25;;;1.13;;
46054;SDS011;31788;6.954;-71.872;2022-07-21T00:10:53;2.35;;;0.90;;
46054;SDS011;31788;6.954;-71.872;2022-07-21T00:13:19;2.00;;;0.82;;
46054;SDS011;31788;6.954;-71.872;2022-07-21T00:15:46;4.47;;;0.90;;
46054;SDS011;31788;6.954;-71.872;2022-07-21T00:18:16;3.90;;;0.90;;
46054;SDS011;31788;6.954;-71.872;2022-07-21T00:20:43;1.90;;;0.90;;
46054;SDS011;31788;6.954;-71.872;2022-07-21T00:23:10;3.70;;;1.70;;
46054;SDS011;31788;6.954;-71.872;2022-07-21T00:25:38;3.33;;;1.50;;
46054;SDS011;31788;6.954;-71.872;2022-07-21T00:28:04;2.33;;;1.17;;
46054;SDS011;31788;6.954;-71.872;2022-07-21T00:30:32;2.20;;;0.80;;
46054;SDS011;31788;6.954;-71.872;2022-07-21T00:32:59;2.67;;;0.60;;
46054;SDS011;31788;6.954;-71.872;2022-07-21T00:35:26;3.45;;;0.80;;
46054;SDS011;31788;6.954;-71.872;2022-07-21T00:37:53;1.73;;;0.70;;
46054;SDS011;31788;6.954;-71.872;2022-07-21T00:40:22;2.40;;;0.80;;
46054;SDS011;31788;6.954;-71.872;2022-07-21T00:42:54;3.00;;;0.77;;
46054;SDS011;31788;6.954;-71.872;2022-07-21T00:45:21;4.10;;;1.60;;
46054;SDS011;31788;6.954;-71.872;2022-07-21T00:47:51;8.18;;;6.15;;
46054;SDS011;31788;6.954;-71.872;2022-07-21T00:50:18;6.40;;;3.50;;
46054;SDS011;31788;6.954;-71.872;2022-07-21T00:52:46;5.10;;;1.73;;
46054;SDS011;31788;6.954;-71.872;2022-07-21T00:55:15;2.80;;;1.23;;
46054;SDS011;31788;6.954;-71.872;2022-07-21T00:57:44;1.13;;;0.77;;
46054;SDS011;31788;6.954;-71.872;2022-07-21T01:00:15;3.03;;;0.90;;
46054;SDS011;31788;6.954;-71.872;2022-07-21T01:02:44;1.05;;;0.40;;
46054;SDS011;31788;6.954;-71.872;2022-07-21T01:05:12;2.28;;;0.50;;
46054;SDS011;31788;6.954;-71.872;2022-07-21T01:07:48;1.80;;;0.63;;
46054;SDS011;31788;6.954;-71.872;2022-07-21T01:10:17;1.90;;;0.52;;
46054;SDS011;31788;6.954;-71.872;2022-07-21T01:12:45;2.30;;;0.40;;
46054;SDS011;31788;6.954;-71.872;2022-07-21T01:15:12;4.95;;;0.60;;
46054;SDS011;31788;6.954;-71.872;2022-07-21T01:17:40;1.13;;;0.30;;
46054;SDS011;31788;6.954;-71.872;2022-07-21T01:20:12;1.40;;;0.60;;
46054;SDS011;31788;6.954;-71.872;2022-07-21T01:22:42;2.10;;;0.40;;
46054;SDS011;31788;6.954;-71.872;2022-07-21T01:25:10;1.55;;;0.30;;
46054;SDS011;31788;6.954;-71.872;2022-07-21T01:27:38;0.97;;;0.37;;
46054;SDS011;31788;6.954;-71.872;2022-07-21T01:30:05;0.60;;;0.30;;
46054;SDS011;31788;6.954;-71.872;2022-07-21T01:32:34;1.92;;;0.40;;
46054;SDS011;31788;6.954;-71.872;2022-07-21T01:35:05;1.77;;;0.30;;
46054;SDS011;31788;6.954;-71.872;2022-07-21T01:37:34;2.75;;;0.38;;
46054;SDS011;31788;6.954;-71.872;2022-07-21T01:40:09;2.27;;;0.40;;
46054;SDS011;31788;6.954;-71.872;2022-07-21T01:42:55;1.00;;;0.30;;
46054;SDS011;31788;6.954;-71.872;2022-07-21T01:45:22;1.27;;;0.32;;
46054;SDS011;31788;6.954;-71.872;2022-07-21T01:47:49;2.03;;;0.20;;
46054;SDS011;31788;6.954;-71.872;2022-07-21T01:50:17;0.77;;;0.30;;
46054;SDS011;31788;6.954;-71.872;2022-07-21T01:52:46;2.65;;;0.40;;
46054;SDS011;31788;6.954;-71.872;2022-07-21T01:55:13;1.20;;;0.40;;
46054;SDS011;31788;6.954;-71.872;2022-07-21T01:57:40;0.50;;;0.20;;
46054;SDS011;31788;6.954;-71.872;2022-07-21T02:00:07;1.77;;;0.35;;
46054;SDS011;31788;6.954;-71.872;2022-07-21T02:02:34;2.90;;;0.28;;
46054;SDS011;31788;6.954;-71.872;2022-07-21T02:05:01;1.20;;;0.20;;
46054;SDS011;31788;6.954;-71.872;2022-07-21T02:07:28;0.70;;;0.30;;
46054;SDS011;31788;6.954;-71.872;2022-07-21T02:09:55;0.60;;;0.20;;
46054;SDS011;31788;6.954;-71.872;2022-07-21T02:12:22;1.98;;;0.30;;
46054;SDS011;31788;6.954;-71.872;2022-07-21T02:14:49;2.03;;;0.40;;
46054;SDS011;31788;6.954;-71.872;2022-07-21T02:17:16;1.25;;;0.20;;
46054;SDS011;31788;6.954;-71.872;2022-07-21T02:19:42;1.13;;;0.20;;
46054;SDS011;31788;6.954;-71.872;2022-07-21T02:22:09;1.30;;;0.20;;
46054;SDS011;31788;6.954;-71.872;2022-07-21T02:24:36;2.40;;;0.32;;
46054;SDS011;31788;6.954;-71.872;2022-07-21T02:27:05;1.92;;;0.32;;
46054;SDS011;31788;6.954;-71.872;2022-07-21T02:29:31;0.63;;;0.20;;
46054;SDS011;31788;6.954;-71.872;2022-07-21T02:32:01;1.27;;;0.20;;
46054;SDS011;31788;6.954;-71.872;2022-07-21T02:34:28;2.70;;;0.30;;
46054;SDS011;31788;6.954;-71.872;2022-07-21T02:36:54;1.45;;;0.30;;
46054;SDS011;31788;6.954;-71.872;2022-07-21T02:39:21;3.80;;;0.40;;
46054;SDS011;31788;6.954;-71.872;2022-07-21T02:41:48;0.70;;;0.20;;
46054;SDS011;31788;6.954;-71.872;2022-07-21T02:44:14;0.77;;;0.20;;
46054;SDS011;31788;6.954;-71.872;2022-07-21T02:46:41;0.98;;;0.20;;
46054;SDS011;31788;6.954;-71.872;2022-07-21T02:49:10;1.58;;;0.30;;
46054;SDS011;31788;6.954;-71.872;2022-07-21T02:51:37;2.70;;;0.50;;
46054;SDS011;31788;6.954;-71.872;2022-07-21T02:54:04;1.38;;;0.30;;
46054;SDS011;31788;6.954;-71.872;2022-07-21T02:56:30;1.33;;;0.20;;
46054;SDS011;31788;6.954;-71.872;2022-07-21T02:58:57;1.38;;;0.20;;
46054;SDS011;31788;6.954;-71.872;2022-07-21T03:01:24;3.83;;;0.40;;
46054;SDS011;31788;6.954;-71.872;2022-07-21T03:03:50;1.77;;;0.40;;
46054;SDS011;31788;6.954;-71.872;2022-07-21T03:06:17;1.85;;;0.30;;
46054;SDS011;31788;6.954;-71.872;2022-07-21T03:08:44;1.00;;;0.30;;
46054;SDS011;31788;6.954;-71.872;2022-07-21T03:11:10;1.37;;;0.40;;
46054;SDS011;31788;6.954;-71.872;2022-07-21T03:13:40;0.88;;;0.25;;
46054;SDS011;31788;6.954;-71.872;2022-07-21T03:16:07;1.00;;;0.22;;
46054;SDS011;31788;6.954;-71.872;2022-07-21T03:18:34;2.10;;;0.28;;
46054;SDS011;31788;6.954;-71.872;2022-07-21T03:21:00;1.40;;;0.25;;
46054;SDS011;31788;6.954;-71.872;2022-07-21T03:23:27;2.20;;;0.30;;
46054;SDS011;31788;6.954;-71.872;2022-07-21T03:25:54;0.75;;;0.20;;
46054;SDS011;31788;6.954;-71.872;2022-07-21T03:28:20;1.60;;;0.20;;
46054;SDS011;31788;6.954;-71.872;2022-07-21T03:30:47;2.33;;;0.20;;
46054;SDS011;31788;6.954;-71.872;2022-07-21T03:33:13;0.33;;;0.10;;
46054;SDS011;31788;6.954;-71.872;2022-07-21T03:35:40;2.00;;;0.20;;
46054;SDS011;31788;6.954;-71.872;2022-07-21T03:38:07;0.90;;;0.20;;
46054;SDS011;31788;6.954;-71.872;2022-07-21T03:40:35;1.63;;;0.22;;
46054;SDS011;31788;6.954;-71.872;2022-07-21T03:43:03;2.50;;;0.30;;
46054;SDS011;31788;6.954;-71.872;2022-07-21T03:45:32;1.50;;;0.20;;
46054;SDS011;31788;6.954;-71.872;2022-07-21T03:48:01;2.05;;;0.20;;
46054;SDS011;31788;6.954;-71.872;2022-07-21T03:50:29;0.75;;;0.17;;
46054;SDS011;31788;6.954;-71.872;2022-07-21T03:52:56;0.70;;;0.20;;
46054;SDS011;31788;6.954;-71.872;2022-07-21T03:55:23;1.80;;;0.20;;
46054;SDS011;31788;6.954;-71.872;2022-07-21T03:57:51;0.68;;;0.20;;
46054;SDS011;31788;6.954;-71.872;2022-07-21T04:00:21;1.80;;;0.30;;
46054;SDS011;31788;6.954;-71.872;2022-07-21T04:02:50;2.10;;;0.50;;
46054;SDS011;31788;6.954;-71.872;2022-07-21T04:05:17;1.40;;;0.30;;
46054;SDS011;31788;6.954;-71.872;2022-07-21T04:07:46;1.23;;;0.30;;
46054;SDS011;31788;6.954;-71.872;2022-07-21T04:10:15;1.30;;;0.20;;
46054;SDS011;31788;6.954;-71.872;2022-07-21T04:12:43;0.55;;;0.20;;
46054;SDS011;31788;6.954;-71.872;2022-07-21T04:15:10;0.63;;;0.20;;
46054;SDS011;31788;6.954;-71.872;2022-07-21T04:17:37;1.83;;;0.20;;
46054;SDS011;31788;6.954;-71.872;2022-07-21T04:20:05;0.68;;;0.20;;
46054;SDS011;31788;6.954;-71.872;2022-07-21T04:22:33;1.13;;;0.20;;
46054;SDS011;31788;6.954;-71.872;2022-07-21T04:25:00;1.30;;;0.20;;
46054;SDS011;31788;6.954;-71.872;2022-07-21T04:27:27;3.70;;;0.22;;
46054;SDS011;31788;6.954;-71.872;2022-07-21T04:29:54;2.15;;;0.20;;
46054;SDS011;31788;6.954;-71.872;2022-07-21T04:32:21;2.05;;;0.20;;
46054;SDS011;31788;6.954;-71.872;2022-07-21T04:34:48;0.65;;;0.10;;
46054;SDS011;31788;6.954;-71.872;2022-07-21T04:37:14;0.63;;;0.20;;
46054;SDS011;31788;6.954;-71.872;2022-07-21T04:39:41;2.40;;;0.20;;
46054;SDS011;31788;6.954;-71.872;2022-07-21T04:42:08;1.55;;;0.20;;
46054;SDS011;31788;6.954;-71.872;2022-07-21T04:44:34;1.58;;;0.20;;
46054;SDS011;31788;6.954;-71.872;2022-07-21T04:47:01;2.20;;;0.20;;
46054;SDS011;31788;6.954;-71.872;2022-07-21T04:49:28;0.40;;;0.10;;
46054;SDS011;31788;6.954;-71.872;2022-07-21T04:51:55;2.17;;;0.22;;
46054;SDS011;31788;6.954;-71.872;2022-07-21T04:54:21;0.57;;;0.20;;
46054;SDS011;31788;6.954;-71.872;2022-07-21T04:56:48;1.90;;;0.23;;
46054;SDS011;31788;6.954;-71.872;2022-07-21T04:59:18;0.43;;;0.15;;
46054;SDS011;31788;6.954;-71.872;2022-07-21T05:01:44;2.00;;;0.25;;
46054;SDS011;31788;6.954;-71.872;2022-07-21T05:04:17;2.00;;;0.20;;
46054;SDS011;31788;6.954;-71.872;2022-07-21T05:06:43;0.85;;;0.40;;
46054;SDS011;31788;6.954;-71.872;2022-07-21T05:09:10;0.40;;;0.30;;
46054;SDS011;31788;6.954;-71.872;2022-07-21T05:11:37;0.63;;;0.30;;
46054;SDS011;31788;6.954;-71.872;2022-07-21T05:14:03;1.77;;;0.25;;
46054;SDS011;31788;6.954;-71.872;2022-07-21T05:16:30;0.95;;;0.20;;
46054;SDS011;31788;6.954;-71.872;2022-07-21T05:18:57;1.27;;;0.30;;
46054;SDS011;31788;6.954;-71.872;2022-07-21T05:21:24;2.13;;;0.30;;
46054;SDS011;31788;6.954;-71.872;2022-07-21T05:23:50;1.42;;;0.30;;
46054;SDS011;31788;6.954;-71.872;2022-07-21T05:26:17;1.05;;;0.25;;
46054;SDS011;31788;6.954;-71.872;2022-07-21T05:28:44;1.53;;;0.23;;
46054;SDS011;31788;6.954;-71.872;2022-07-21T05:31:11;2.50;;;0.30;;
46054;SDS011;31788;6.954;-71.872;2022-07-21T05:33:38;1.70;;;0.20;;
46054;SDS011;31788;6.954;-71.872;2022-07-21T05:36:05;1.67;;;0.40;;
46054;SDS011;31788;6.954;-71.872;2022-07-21T05:38:34;5.50;;;1.00;;
46054;SDS011;31788;6.954;-71.872;2022-07-21T05:41:01;2.22;;;0.20;;
46054;SDS011;31788;6.954;-71.872;2022-07-21T05:43:29;2.45;;;0.40;;
46054;SDS011;31788;6.954;-71.872;2022-07-21T05:45:56;2.33;;;0.28;;
46054;SDS011;31788;6.954;-71.872;2022-07-21T05:48:23;1.35;;;0.30;;
46054;SDS011;31788;6.954;-71.872;2022-07-21T05:50:50;1.98;;;0.40;;
46054;SDS011;31788;6.954;-71.872;2022-07-21T05:53:17;2.40;;;0.32;;
46054;SDS011;31788;6.954;-71.872;2022-07-21T05:55:44;3.42;;;0.50;;
46054;SDS011;31788;6.954;-71.872;2022-07-21T05:58:10;4.45;;;0.30;;
46054;SDS011;31788;6.954;-71.872;2022-07-21T06:00:37;2.00;;;0.40;;
46054;SDS011;31788;6.954;-71.872;2022-07-21T06:03:04;3.42;;;1.00;;
46054;SDS011;31788;6.954;-71.872;2022-07-21T06:05:31;3.40;;;0.63;;
46054;SDS011;31788;6.954;-71.872;2022-07-21T06:07:57;4.30;;;0.40;;
46054;SDS011;31788;6.954;-71.872;2022-07-21T06:10:26;2.17;;;0.40;;
46054;SDS011;31788;6.954;-71.872;2022-07-21T06:12:53;0.93;;;0.40;;
46054;SDS011;31788;6.954;-71.872;2022-07-21T06:15:19;2.60;;;0.40;;
46054;SDS011;31788;6.954;-71.872;2022-07-21T06:17:46;2.20;;;0.32;;
46054;SDS011;31788;6.954;-71.872;2022-07-21T06:20:13;4.57;;;0.50;;
46054;SDS011;31788;6.954;-71.872;2022-07-21T06:22:40;1.73;;;0.30;;
46054;SDS011;31788;6.954;-71.872;2022-07-21T06:25:07;1.33;;;0.38;;
46054;SDS011;31788;6.954;-71.872;2022-07-21T06:27:34;2.67;;;0.40;;
46054;SDS011;31788;6.954;-71.872;2022-07-21T06:30:00;4.30;;;0.60;;
46054;SDS011;31788;6.954;-71.872;2022-07-21T06:32:27;2.88;;;0.60;;
46054;SDS011;31788;6.954;-71.872;2022-07-21T06:34:54;2.97;;;0.43;;
46054;SDS011;31788;6.954;-71.872;2022-07-21T06:37:20;2.53;;;0.52;;
46054;SDS011;31788;6.954;-71.872;2022-07-21T06:39:47;2.25;;;0.50;;
46054;SDS011;31788;6.954;-71.872;2022-07-21T06:42:14;2.13;;;0.50;;
46054;SDS011;31788;6.954;-71.872;2022-07-21T06:44:41;2.00;;;0.50;;
46054;SDS011;31788;6.954;-71.872;2022-07-21T06:47:08;2.80;;;0.30;;
46054;SDS011;31788;6.954;-71.872;2022-07-21T06:49:34;2.15;;;0.32;;
46054;SDS011;31788;6.954;-71.872;2022-07-21T06:52:01;2.53;;;0.50;;
46054;SDS011;31788;6.954;-71.872;2022-07-21T06:54:28;4.85;;;0.43;;
46054;SDS011;31788;6.954;-71.872;2022-07-21T06:56:54;2.00;;;0.50;;
46054;SDS011;31788;6.954;-71.872;2022-07-21T06:59:21;3.17;;;0.30;;
46054;SDS011;31788;6.954;-71.872;2022-07-21T07:01:48;2.85;;;0.50;;
46054;SDS011;31788;6.954;-71.872;2022-07-21T07:04:14;2.47;;;0.30;;
46054;SDS011;31788;6.954;-71.872;2022-07-21T07:06:41;3.90;;;0.40;;
46054;SDS011;31788;6.954;-71.872;2022-07-21T07:09:08;2.13;;;0.30;;
46054;SDS011;31788;6.954;-71.872;2022-07-21T07:11:35;2.93;;;0.30;;
46054;SDS011;31788;6.954;-71.872;2022-07-21T07:14:01;5.20;;;0.40;;
46054;SDS011;31788;6.954;-71.872;2022-07-21T07:16:28;2.58;;;0.35;;
46054;SDS011;31788;6.954;-71.872;2022-07-21T07:18:55;3.58;;;0.40;;
46054;SDS011;31788;6.954;-71.872;2022-07-21T07:21:21;3.80;;;0.70;;
46054;SDS011;31788;6.954;-71.872;2022-07-21T07:23:48;3.22;;;0.30;;
46054;SDS011;31788;6.954;-71.872;2022-07-21T07:26:15;1.77;;;0.30;;
46054;SDS011;31788;6.954;-71.872;2022-07-21T07:28:41;3.90;;;0.60;;
46054;SDS011;31788;6.954;-71.872;2022-07-21T07:31:08;2.65;;;0.30;;
46054;SDS011;31788;6.954;-71.872;2022-07-21T07:33:35;4.23;;;0.40;;
46054;SDS011;31788;6.954;-71.872;2022-07-21T07:36:01;2.88;;;0.60;;
46054;SDS011;31788;6.954;-71.872;2022-07-21T07:38:28;2.50;;;0.37;;
46054;SDS011;31788;6.954;-71.872;2022-07-21T07:40:55;5.60;;;0.47;;
46054;SDS011;31788;6.954;-71.872;2022-07-21T07:43:21;4.63;;;0.60;;
46054;SDS011;31788;6.954;-71.872;2022-07-21T07:45:48;3.93;;;0.70;;
46054;SDS011;31788;6.954;-71.872;2022-07-21T07:48:14;3.20;;;0.40;;
46054;SDS011;31788;6.954;-71.872;2022-07-21T07:50:41;3.45;;;0.65;;
46054;SDS011;31788;6.954;-71.872;2022-07-21T07:53:08;1.70;;;0.30;;
46054;SDS011;31788;6.954;-71.872;2022-07-21T07:55:34;2.92;;;0.43;;
46054;SDS011;31788;6.954;-71.872;2022-07-21T07:58:01;4.37;;;0.50;;
46054;SDS011;31788;6.954;-71.872;2022-07-21T08:00:28;4.45;;;0.50;;
46054;SDS011;31788;6.954;-71.872;2022-07-21T08:02:54;2.33;;;0.40;;
46054;SDS011;31788;6.954;-71.872;2022-07-21T08:05:21;4.85;;;0.38;;
46054;SDS011;31788;6.954;-71.872;2022-07-21T08:07:48;3.53;;;0.50;;
46054;SDS011;31788;6.954;-71.872;2022-07-21T08:10:14;3.80;;;0.67;;
46054;SDS011;31788;6.954;-71.872;2022-07-21T08:12:41;5.05;;;0.40;;
46054;SDS011;31788;6.954;-71.872;2022-07-21T08:15:08;3.05;;;0.50;;
46054;SDS011;31788;6.954;-71.872;2022-07-21T08:17:35;4.88;;;0.45;;
46054;SDS011;31788;6.954;-71.872;2022-07-21T08:20:02;5.10;;;0.40;;
46054;SDS011;31788;6.954;-71.872;2022-07-21T08:22:30;2.92;;;0.50;;
46054;SDS011;31788;6.954;-71.872;2022-07-21T08:24:56;3.70;;;0.45;;
46054;SDS011;31788;6.954;-71.872;2022-07-21T08:27:23;2.45;;;0.40;;
46054;SDS011;31788;6.954;-71.872;2022-07-21T08:29:49;6.05;;;0.55;;
46054;SDS011;31788;6.954;-71.872;2022-07-21T08:32:18;3.13;;;0.55;;
46054;SDS011;31788;6.954;-71.872;2022-07-21T08:34:45;3.80;;;0.40;;
46054;SDS011;31788;6.954;-71.872;2022-07-21T08:37:12;3.15;;;0.50;;
46054;SDS011;31788;6.954;-71.872;2022-07-21T08:39:43;3.47;;;0.40;;
46054;SDS011;31788;6.954;-71.872;2022-07-21T08:42:10;1.42;;;0.50;;
46054;SDS011;31788;6.954;-71.872;2022-07-21T08:44:46;2.30;;;0.45;;
46054;SDS011;31788;6.954;-71.872;2022-07-21T08:47:13;6.60;;;0.65;;
46054;SDS011;31788;6.954;-71.872;2022-07-21T08:49:40;6.20;;;0.70;;
46054;SDS011;31788;6.954;-71.872;2022-07-21T08:52:07;3.33;;;0.63;;
46054;SDS011;31788;6.954;-71.872;2022-07-21T08:54:33;7.10;;;0.70;;
46054;SDS011;31788;6.954;-71.872;2022-07-21T08:57:00;4.68;;;0.85;;
46054;SDS011;31788;6.954;-71.872;2022-07-21T08:59:27;2.97;;;0.60;;
46054;SDS011;31788;6.954;-71.872;2022-07-21T09:01:53;3.47;;;0.68;;
46054;SDS011;31788;6.954;-71.872;2022-07-21T09:07:02;3.17;;;0.68;;
46054;SDS011;31788;6.954;-71.872;2022-07-21T09:09:31;2.60;;;0.60;;
46054;SDS011;31788;6.954;-71.872;2022-07-21T09:11:59;5.18;;;0.80;;
46054;SDS011;31788;6.954;-71.872;2022-07-21T09:14:31;2.72;;;0.88;;
46054;SDS011;31788;6.954;-71.872;2022-07-21T09:17:02;5.65;;;0.60;;
46054;SDS011;31788;6.954;-71.872;2022-07-21T09:19:34;2.38;;;0.65;;
46054;SDS011;31788;6.954;-71.872;2022-07-21T09:22:04;7.00;;;0.88;;
46054;SDS011;31788;6.954;-71.872;2022-07-21T09:24:37;6.00;;;0.77;;
46054;SDS011;31788;6.954;-71.872;2022-07-21T09:27:15;4.28;;;0.60;;
46054;SDS011;31788;6.954;-71.872;2022-07-21T09:29:47;3.92;;;0.45;;
46054;SDS011;31788;6.954;-71.872;2022-07-21T09:34:45;5.50;;;0.60;;
46054;SDS011;31788;6.954;-71.872;2022-07-21T09:37:14;8.10;;;0.80;;
46054;SDS011;31788;6.954;-71.872;2022-07-21T09:42:14;5.85;;;0.63;;
46054;SDS011;31788;6.954;-71.872;2022-07-21T09:44:51;3.65;;;0.50;;
46054;SDS011;31788;6.954;-71.872;2022-07-21T09:47:23;5.50;;;0.70;;
46054;SDS011;31788;6.954;-71.872;2022-07-21T09:49:52;7.75;;;0.70;;
46054;SDS011;31788;6.954;-71.872;2022-07-21T09:52:21;6.28;;;0.95;;
46054;SDS011;31788;6.954;-71.872;2022-07-21T09:55:03;4.05;;;0.40;;
46054;SDS011;31788;6.954;-71.872;2022-07-21T09:57:32;5.55;;;0.60;;
46054;SDS011;31788;6.954;-71.872;2022-07-21T10:00:00;2.35;;;0.40;;
46054;SDS011;31788;6.954;-71.872;2022-07-21T10:02:30;4.18;;;1.00;;
46054;SDS011;31788;6.954;-71.872;2022-07-21T10:04:59;4.32;;;1.10;;
46054;SDS011;31788;6.954;-71.872;2022-07-21T10:07:29;5.50;;;1.38;;
46054;SDS011;31788;6.954;-71.872;2022-07-21T10:09:56;5.97;;;1.38;;
46054;SDS011;31788;6.954;-71.872;2022-07-21T10:12:24;7.85;;;2.28;;
46054;SDS011;31788;6.954;-71.872;2022-07-21T10:14:53;6.20;;;1.70;;
46054;SDS011;31788;6.954;-71.872;2022-07-21T10:17:20;5.35;;;1.42;;
46054;SDS011;31788;6.954;-71.872;2022-07-21T10:25:37;5.37;;;1.40;;
46054;SDS011;31788;6.954;-71.872;2022-07-21T10:33:18;5.38;;;1.40;;
46054;SDS011;31788;6.954;-71.872;2022-07-21T10:35:47;3.95;;;1.30;;
46054;SDS011;31788;6.954;-71.872;2022-07-21T10:38:25;6.67;;;1.23;;
46054;SDS011;31788;6.954;-71.872;2022-07-21T10:40:54;8.13;;;1.25;;
46054;SDS011;31788;6.954;-71.872;2022-07-21T10:45:51;5.40;;;1.50;;
46054;SDS011;31788;6.954;-71.872;2022-07-21T10:51:12;6.47;;;1.70;;
46054;SDS011;31788;6.954;-71.872;2022-07-21T10:53:40;10.63;;;2.00;;
46054;SDS011;31788;6.954;-71.872;2022-07-21T10:56:24;4.70;;;1.38;;
46054;SDS011;31788;6.954;-71.872;2022-07-21T10:58:53;5.72;;;1.50;;
46054;SDS011;31788;6.954;-71.872;2022-07-21T11:01:23;6.22;;;1.55;;
46054;SDS011;31788;6.954;-71.872;2022-07-21T11:06:37;7.45;;;1.88;;
46054;SDS011;31788;6.954;-71.872;2022-07-21T11:09:06;5.93;;;1.33;;
46054;SDS011;31788;6.954;-71.872;2022-07-21T11:11:38;5.80;;;1.50;;
46054;SDS011;31788;6.954;-71.872;2022-07-21T11:14:36;8.80;;;1.58;;
46054;SDS011;31788;6.954;-71.872;2022-07-21T11:17:04;5.90;;;1.40;;
46054;SDS011;31788;6.954;-71.872;2022-07-21T11:19:33;6.18;;;1.60;;
46054;SDS011;31788;6.954;-71.872;2022-07-21T11:22:24;3.85;;;1.58;;
46054;SDS011;31788;6.954;-71.872;2022-07-21T11:24:56;5.20;;;1.55;;
46054;SDS011;31788;6.954;-71.872;2022-07-21T11:27:30;4.80;;;1.40;;
46054;SDS011;31788;6.954;-71.872;2022-07-21T11:30:02;6.18;;;1.80;;
46054;SDS011;31788;6.954;-71.872;2022-07-21T11:32:32;4.97;;;1.52;;
46054;SDS011;31788;6.954;-71.872;2022-07-21T11:34:59;6.13;;;1.73;;
46054;SDS011;31788;6.954;-71.872;2022-07-21T11:39:56;5.68;;;2.45;;
46054;SDS011;31788;6.954;-71.872;2022-07-21T11:42:22;5.73;;;2.50;;
46054;SDS011;31788;6.954;-71.872;2022-07-21T11:44:51;9.73;;;7.73;;
46054;SDS011;31788;6.954;-71.872;2022-07-21T11:47:17;5.85;;;3.25;;
46054;SDS011;31788;6.954;-71.872;2022-07-21T11:49:45;6.70;;;1.90;;
46054;SDS011;31788;6.954;-71.872;2022-07-21T11:52:16;6.80;;;2.00;;
46054;SDS011;31788;6.954;-71.872;2022-07-21T11:54:44;5.05;;;1.60;;
46054;SDS011;31788;6.954;-71.872;2022-07-21T11:57:12;3.78;;;1.30;;
46054;SDS011;31788;6.954;-71.872;2022-07-21T11:59:40;2.78;;;1.20;;
46054;SDS011;31788;6.954;-71.872;2022-07-21T12:02:09;5.10;;;1.08;;
46054;SDS011;31788;6.954;-71.872;2022-07-21T12:10:05;6.05;;;1.40;;
46054;SDS011;31788;6.954;-71.872;2022-07-21T12:15:14;6.68;;;1.60;;
46054;SDS011;31788;6.954;-71.872;2022-07-21T12:17:51;4.80;;;1.70;;
46054;SDS011;31788;6.954;-71.872;2022-07-21T12:20:26;43.38;;;6.90;;
46054;SDS011;31788;6.954;-71.872;2022-07-21T12:22:55;47.42;;;6.63;;
46054;SDS011;31788;6.954;-71.872;2022-07-21T12:28:03;49.35;;;6.88;;
46054;SDS011;31788;6.954;-71.872;2022-07-21T12:33:10;54.13;;;6.50;;
46054;SDS011;31788;6.954;-71.872;2022-07-21T12:35:42;71.05;;;7.60;;
46054;SDS011;31788;6.954;-71.872;2022-07-21T12:38:18;61.72;;;6.80;;
46054;SDS011;31788;6.954;-71.872;2022-07-21T12:40:55;48.40;;;5.57;;
46054;SDS011;31788;6.954;-71.872;2022-07-21T12:43:23;24.37;;;3.07;;
46054;SDS011;31788;6.954;-71.872;2022-07-21T12:45:52;29.17;;;3.30;;
46054;SDS011;31788;6.954;-71.872;2022-07-21T12:48:22;39.83;;;4.15;;
46054;SDS011;31788;6.954;-71.872;2022-07-21T12:56:18;41.28;;;3.92;;
46054;SDS011;31788;6.954;-71.872;2022-07-21T12:58:47;40.90;;;3.75;;
46054;SDS011;31788;6.954;-71.872;2022-07-21T13:01:16;40.20;;;3.95;;
46054;SDS011;31788;6.954;-71.872;2022-07-21T13:03:43;54.13;;;5.45;;
46054;SDS011;31788;6.954;-71.872;2022-07-21T13:06:11;48.80;;;5.57;;
46054;SDS011;31788;6.954;-71.872;2022-07-21T13:08:40;46.13;;;5.07;;
46054;SDS011;31788;6.954;-71.872;2022-07-21T13:11:08;34.73;;;4.20;;
46054;SDS011;31788;6.954;-71.872;2022-07-21T13:13:39;23.50;;;2.80;;
46054;SDS011;31788;6.954;-71.872;2022-07-21T13:16:06;12.77;;;2.00;;
46054;SDS011;31788;6.954;-71.872;2022-07-21T13:18:33;20.27;;;3.40;;
46054;SDS011;31788;6.954;-71.872;2022-07-21T13:21:01;11.90;;;1.50;;
46054;SDS011;31788;6.954;-71.872;2022-07-21T13:23:28;13.75;;;1.60;;
46054;SDS011;31788;6.954;-71.872;2022-07-21T13:25:55;7.47;;;1.20;;
46054;SDS011;31788;6.954;-71.872;2022-07-21T13:28:22;7.10;;;1.20;;
46054;SDS011;31788;6.954;-71.872;2022-07-21T13:30:48;7.32;;;1.40;;
46054;SDS011;31788;6.954;-71.872;2022-07-21T13:33:15;6.45;;;1.10;;
46054;SDS011;31788;6.954;-71.872;2022-07-21T13:35:42;4.65;;;1.63;;
46054;SDS011;31788;6.954;-71.872;2022-07-21T13:38:09;3.42;;;1.50;;
46054;SDS011;31788;6.954;-71.872;2022-07-21T13:40:35;5.47;;;1.40;;
46054;SDS011;31788;6.954;-71.872;2022-07-21T13:43:03;5.37;;;1.33;;
46054;SDS011;31788;6.954;-71.872;2022-07-21T13:45:30;4.78;;;1.40;;
46054;SDS011;31788;6.954;-71.872;2022-07-21T13:47:57;4.63;;;1.30;;
46054;SDS011;31788;6.954;-71.872;2022-07-21T13:50:23;5.50;;;1.50;;
46054;SDS011;31788;6.954;-71.872;2022-07-21T13:52:50;4.32;;;1.30;;
46054;SDS011;31788;6.954;-71.872;2022-07-21T13:55:16;3.80;;;1.20;;
46054;SDS011;31788;6.954;-71.872;2022-07-21T13:57:43;4.38;;;1.40;;
46054;SDS011;31788;6.954;-71.872;2022-07-21T14:00:10;3.03;;;1.20;;
46054;SDS011;31788;6.954;-71.872;2022-07-21T14:02:37;3.03;;;1.30;;
46054;SDS011;31788;6.954;-71.872;2022-07-21T14:05:06;6.20;;;1.80;;
46054;SDS011;31788;6.954;-71.872;2022-07-21T14:07:33;4.15;;;1.27;;
46054;SDS011;31788;6.954;-71.872;2022-07-21T14:09:59;2.38;;;1.10;;
46054;SDS011;31788;6.954;-71.872;2022-07-21T14:12:26;3.40;;;1.10;;
46054;SDS011;31788;6.954;-71.872;2022-07-21T14:14:53;3.30;;;1.13;;
46054;SDS011;31788;6.954;-71.872;2022-07-21T14:17:19;3.88;;;1.00;;
46054;SDS011;31788;6.954;-71.872;2022-07-21T14:19:46;3.65;;;0.93;;
46054;SDS011;31788;6.954;-71.872;2022-07-21T14:22:14;3.83;;;1.05;;
46054;SDS011;31788;6.954;-71.872;2022-07-21T14:24:43;1.83;;;0.90;;
46054;SDS011;31788;6.954;-71.872;2022-07-21T14:27:28;1.67;;;0.80;;
46054;SDS011;31788;6.954;-71.872;2022-07-21T14:29:55;2.15;;;0.80;;
46054;SDS011;31788;6.954;-71.872;2022-07-21T14:32:21;2.95;;;1.00;;
46054;SDS011;31788;6.954;-71.872;2022-07-21T14:34:49;2.58;;;1.08;;
46054;SDS011;31788;6.954;-71.872;2022-07-21T14:37:16;2.53;;;1.00;;
46054;SDS011;31788;6.954;-71.872;2022-07-21T14:39:45;3.88;;;1.00;;
46054;SDS011;31788;6.954;-71.872;2022-07-21T14:42:15;1.98;;;0.80;;
46054;SDS011;31788;6.954;-71.872;2022-07-21T14:44:42;1.63;;;0.80;;
46054;SDS011;31788;6.954;-71.872;2022-07-21T14:47:13;1.80;;;0.57;;
46054;SDS011;31788;6.954;-71.872;2022-07-21T14:49:39;1.52;;;0.80;;
46054;SDS011;31788;6.954;-71.872;2022-07-21T14:52:06;6.93;;;1.70;;
46054;SDS011;31788;6.954;-71.872;2022-07-21T14:54:36;6.90;;;1.70;;
46054;SDS011;31788;6.954;-71.872;2022-07-21T14:57:03;6.13;;;1.30;;
46054;SDS011;31788;6.954;-71.872;2022-07-21T14:59:30;8.10;;;1.80;;
46054;SDS011;31788;6.954;-71.872;2022-07-21T15:01:57;9.27;;;2.00;;
46054;SDS011;31788;6.954;-71.872;2022-07-21T15:04:24;5.03;;;1.50;;
46054;SDS011;31788;6.954;-71.872;2022-07-21T15:06:50;6.18;;;1.38;;
46054;SDS011;31788;6.954;-71.872;2022-07-21T15:09:17;9.20;;;1.63;;
46054;SDS011;31788;6.954;-71.872;2022-07-21T15:11:44;4.55;;;1.00;;
46054;SDS011;31788;6.954;-71.872;2022-07-21T15:14:10;4.00;;;0.90;;
46054;SDS011;31788;6.954;-71.872;2022-07-21T15:16:37;5.13;;;1.10;;
46054;SDS011;31788;6.954;-71.872;2022-07-21T15:19:07;4.03;;;0.93;;
46054;SDS011;31788;6.954;-71.872;2022-07-21T15:21:34;4.03;;;0.90;;
46054;SDS011;31788;6.954;-71.872;2022-07-21T15:24:00;5.30;;;1.00;;
46054;SDS011;31788;6.954;-71.872;2022-07-21T15:26:27;2.35;;;0.90;;